Time;durP1;ratioP1;P1;durP2;ratioP2;P2;SDS_P1;SDS_P2;PMS_P1;PMS_P2;Temp;Humidity;BMP_temperature;BMP_pressure;BME280_temperature;BME280_humidity;BME280_pressure;Samples;Min_cycle;Max_cycle;Signal;HPM_P1;HPM_P2
2023/10/30 00:00:38;;;;;;;7.60;2.60;;;;;;;;;;103624;1292;545007;-74
2023/10/30 00:04:15;;;;;;;8.90;3.00;;;;;;;;;;103893;1289;544963;-73
2023/10/30 00:07:53;;;;;;;7.30;2.70;;;;;;;;;;103837;1288;545551;-72
2023/10/30 00:11:30;;;;;;;8.40;2.50;;;;;;;;;;103824;1289;545367;-73
2023/10/30 00:15:08;;;;;;;7.00;2.10;;;;;;;;;;103751;1289;545385;-73
2023/10/30 00:18:46;;;;;;;8.30;2.70;;;;;;;;;;103837;1291;545584;-74
2023/10/30 00:22:23;;;;;;;8.20;2.60;;;;;;;;;;103707;1290;545513;-73
2023/10/30 00:26:01;;;;;;;7.50;2.40;;;;;;;;;;103799;1289;544883;-73
2023/10/30 00:29:38;;;;;;;6.80;2.40;;;;;;;;;;103882;1289;545744;-73
2023/10/30 00:33:21;;;;;;;7.80;2.40;;;;;;;;;;103834;1289;545792;-73
2023/10/30 00:36:59;;;;;;;7.10;2.40;;;;;;;;;;103936;1291;544952;-73
2023/10/30 00:40:36;;;;;;;7.30;2.20;;;;;;;;;;103875;1289;545169;-72
2023/10/30 00:44:14;;;;;;;6.70;2.40;;;;;;;;;;103724;1291;544771;-73
2023/10/30 00:47:51;;;;;;;5.80;2.30;;;;;;;;;;103753;1301;545781;-73
2023/10/30 00:51:29;;;;;;;6.30;2.40;;;;;;;;;;103751;1289;544764;-73
2023/10/30 00:55:06;;;;;;;8.20;2.50;;;;;;;;;;103792;1292;545149;-73
2023/10/30 00:58:43;;;;;;;6.30;2.20;;;;;;;;;;103827;1291;545528;-73
2023/10/30 01:02:20;;;;;;;6.10;2.10;;;;;;;;;;103775;1289;544633;-73
2023/10/30 01:05:58;;;;;;;6.90;2.50;;;;;;;;;;103693;1291;544714;-73
2023/10/30 01:09:32;;;;;;;5.70;2.10;;;;;;;;;;103738;1289;545452;-73
2023/10/30 01:13:15;;;;;;;6.30;2.40;;;;;;;;;;103750;1292;544995;-72
2023/10/30 01:16:53;;;;;;;7.40;2.50;;;;;;;;;;103944;1289;544813;-72
2023/10/30 01:20:31;;;;;;;6.70;2.20;;;;;;;;;;103712;1291;545127;-72
2023/10/30 01:24:08;;;;;;;5.70;2.30;;;;;;;;;;103791;1292;545054;-73
2023/10/30 01:27:46;;;;;;;6.80;2.40;;;;;;;;;;103865;1289;544963;-72
2023/10/30 01:31:27;;;;;;;6.00;2.40;;;;;;;;;;103860;1290;544986;-72
2023/10/30 01:35:01;;;;;;;6.90;2.50;;;;;;;;;;103826;1289;545671;-79
2023/10/30 01:38:34;;;;;;;6.90;2.40;;;;;;;;;;103801;1293;544738;-73
2023/10/30 01:42:17;;;;;;;6.00;2.40;;;;;;;;;;103760;1295;544796;-72
2023/10/30 01:45:54;;;;;;;5.70;2.10;;;;;;;;;;103745;1292;544936;-72
2023/10/30 01:49:33;;;;;;;6.00;2.30;;;;;;;;;;103757;1291;545160;-72
2023/10/30 01:53:09;;;;;;;6.10;2.50;;;;;;;;;;103810;1291;544992;-73
2023/10/30 01:56:47;;;;;;;5.50;2.40;;;;;;;;;;103725;1292;545468;-73
2023/10/30 02:00:24;;;;;;;6.30;2.20;;;;;;;;;;103861;1292;546298;-73
2023/10/30 02:04:02;;;;;;;6.20;2.70;;;;;;;;;;103744;1292;545747;-73
2023/10/30 02:07:39;;;;;;;7.10;2.50;;;;;;;;;;103756;1292;545508;-72
2023/10/30 02:11:13;;;;;;;5.70;2.60;;;;;;;;;;103887;1288;545182;-73
2023/10/30 02:14:55;;;;;;;6.50;2.30;;;;;;;;;;103818;1289;545832;-73
2023/10/30 02:18:32;;;;;;;6.10;2.20;;;;;;;;;;103732;1289;544791;-76
2023/10/30 02:22:09;;;;;;;6.20;2.40;;;;;;;;;;103809;1288;545242;-72
2023/10/30 02:25:47;;;;;;;7.00;2.40;;;;;;;;;;103714;1289;544716;-73
2023/10/30 02:29:25;;;;;;;7.90;2.50;;;;;;;;;;103990;1289;544970;-73
2023/10/30 02:33:02;;;;;;;5.10;2.20;;;;;;;;;;103853;1291;545601;-74
2023/10/30 02:36:39;;;;;;;5.60;2.40;;;;;;;;;;103763;1292;545016;-73
2023/10/30 02:40:17;;;;;;;5.70;2.30;;;;;;;;;;103709;1295;544969;-73
2023/10/30 02:43:54;;;;;;;6.00;2.40;;;;;;;;;;103762;1295;544851;-76
2023/10/30 02:47:32;;;;;;;5.40;2.40;;;;;;;;;;103748;1292;545069;-73
2023/10/30 02:51:09;;;;;;;7.90;2.70;;;;;;;;;;103722;1292;544833;-73
2023/10/30 02:54:47;;;;;;;7.20;2.60;;;;;;;;;;103943;1289;545347;-72
2023/10/30 02:58:24;;;;;;;7.00;2.50;;;;;;;;;;103875;1299;545302;-72
2023/10/30 03:02:02;;;;;;;6.20;2.50;;;;;;;;;;103815;1292;545055;-72
2023/10/30 03:05:39;;;;;;;9.00;3.20;;;;;;;;;;103789;1289;545005;-72
2023/10/30 03:09:16;;;;;;;5.60;2.60;;;;;;;;;;103985;1290;544849;-72
2023/10/30 03:12:54;;;;;;;6.10;2.20;;;;;;;;;;103746;1291;544770;-72
2023/10/30 03:16:31;;;;;;;7.60;2.80;;;;;;;;;;103483;1294;544847;-73
2023/10/30 03:20:09;;;;;;;7.20;2.90;;;;;;;;;;104558;1282;544957;-72
2023/10/30 03:23:46;;;;;;;6.50;2.70;;;;;;;;;;103794;1293;545742;-73
2023/10/30 03:27:23;;;;;;;7.70;2.80;;;;;;;;;;103798;1289;544998;-73
2023/10/30 03:31:05;;;;;;;7.90;2.80;;;;;;;;;;103730;1289;544920;-72
2023/10/30 03:34:38;;;;;;;7.40;2.70;;;;;;;;;;103753;1290;544918;-73
2023/10/30 03:38:16;;;;;;;7.00;2.70;;;;;;;;;;103670;1291;545027;-73
2023/10/30 03:41:53;;;;;;;6.20;2.90;;;;;;;;;;103769;1291;545158;-73
2023/10/30 03:45:31;;;;;;;7.90;3.20;;;;;;;;;;103799;1289;545296;-72
2023/10/30 03:49:08;;;;;;;6.80;2.90;;;;;;;;;;103773;1292;544850;-73
2023/10/30 03:52:46;;;;;;;6.30;2.80;;;;;;;;;;103864;1289;544814;-72
2023/10/30 03:56:23;;;;;;;7.00;3.30;;;;;;;;;;103816;1288;545661;-72
2023/10/30 04:00:01;;;;;;;6.50;3.40;;;;;;;;;;103843;1292;544869;-72
2023/10/30 04:03:38;;;;;;;8.30;3.70;;;;;;;;;;103957;1292;545546;-72
2023/10/30 04:07:16;;;;;;;7.10;3.40;;;;;;;;;;103810;1288;545457;-72
2023/10/30 04:10:52;;;;;;;7.00;3.20;;;;;;;;;;103826;1301;544729;-73
2023/10/30 04:14:30;;;;;;;8.50;3.80;;;;;;;;;;103563;1294;544986;-73
2023/10/30 04:18:08;;;;;;;6.60;3.80;;;;;;;;;;103843;1288;544863;-71
2023/10/30 04:21:42;;;;;;;7.80;4.00;;;;;;;;;;103908;1296;545416;-73
2023/10/30 04:25:25;;;;;;;9.70;3.90;;;;;;;;;;103971;1289;544759;-72
2023/10/30 04:29:02;;;;;;;8.40;4.00;;;;;;;;;;104097;1286;544888;-73
2023/10/30 04:32:40;;;;;;;7.00;3.70;;;;;;;;;;103715;1289;545477;-72
2023/10/30 04:36:17;;;;;;;7.90;4.00;;;;;;;;;;103884;1289;544777;-72
2023/10/30 04:39:54;;;;;;;7.00;3.50;;;;;;;;;;103747;1289;545718;-72
2023/10/30 04:43:33;;;;;;;6.90;3.40;;;;;;;;;;103731;1292;545430;-72
2023/10/30 04:47:09;;;;;;;6.60;3.70;;;;;;;;;;103761;1291;545853;-72
2023/10/30 04:50:43;;;;;;;7.30;3.60;;;;;;;;;;103779;1292;544969;-72
2023/10/30 04:54:24;;;;;;;7.90;3.50;;;;;;;;;;103795;1289;545927;-73
2023/10/30 04:58:02;;;;;;;7.20;3.50;;;;;;;;;;104121;1285;545360;-73
2023/10/30 05:01:39;;;;;;;7.00;3.30;;;;;;;;;;103693;1292;544627;-72
2023/10/30 05:05:17;;;;;;;7.00;4.30;;;;;;;;;;103772;1289;545442;-72
2023/10/30 05:08:54;;;;;;;9.10;4.40;;;;;;;;;;103842;1292;546191;-72
2023/10/30 05:12:52;;;;;;;7.50;4.30;;;;;;;;;;103639;1295;548068;-72
2023/10/30 05:16:09;;;;;;;7.50;3.90;;;;;;;;;;103739;1295;545196;-72
2023/10/30 05:19:43;;;;;;;8.90;4.40;;;;;;;;;;103773;1292;545717;-73
2023/10/30 05:23:25;;;;;;;10.30;4.90;;;;;;;;;;104120;1289;544846;-73
2023/10/30 05:27:03;;;;;;;9.90;4.60;;;;;;;;;;103816;1289;544723;-74
2023/10/30 05:30:40;;;;;;;8.90;3.90;;;;;;;;;;103712;1292;545964;-71
2023/10/30 05:34:18;;;;;;;10.00;4.60;;;;;;;;;;103808;1293;544993;-71
2023/10/30 05:37:56;;;;;;;8.00;4.70;;;;;;;;;;103833;1292;545662;-73
2023/10/30 05:41:32;;;;;;;9.80;5.00;;;;;;;;;;103632;1289;545370;-72
2023/10/30 05:45:10;;;;;;;8.50;4.30;;;;;;;;;;103796;1289;545025;-73
2023/10/30 05:48:47;;;;;;;9.10;3.90;;;;;;;;;;103819;1288;545305;-75
2023/10/30 05:52:25;;;;;;;7.80;3.60;;;;;;;;;;104023;1289;544855;-72
2023/10/30 05:56:03;;;;;;;8.10;4.00;;;;;;;;;;103859;1289;545793;-77
2023/10/30 05:59:41;;;;;;;7.70;4.10;;;;;;;;;;103845;1289;546152;-73
2023/10/30 06:03:18;;;;;;;8.40;4.20;;;;;;;;;;103743;1294;544795;-72
2023/10/30 06:06:55;;;;;;;7.50;3.80;;;;;;;;;;103875;1290;544808;-72
2023/10/30 06:10:33;;;;;;;8.50;4.00;;;;;;;;;;103786;1290;544799;-74
2023/10/30 06:14:10;;;;;;;9.30;4.20;;;;;;;;;;103755;1292;544856;-72
2023/10/30 06:17:48;;;;;;;8.90;4.10;;;;;;;;;;103841;1289;544961;-74
2023/10/30 06:21:31;;;;;;;7.30;3.60;;;;;;;;;;103899;1295;548140;-72
2023/10/30 06:25:03;;;;;;;7.80;3.80;;;;;;;;;;103420;1306;545732;-77
2023/10/30 06:29:01;;;;;;;7.80;3.80;;;;;;;;;;103620;1294;546035;-72
2023/10/30 06:32:17;;;;;;;10.70;4.30;;;;;;;;;;103758;1291;545016;-77
2023/10/30 06:35:56;;;;;;;7.20;3.80;;;;;;;;;;103842;1289;544992;-74
2023/10/30 06:39:32;;;;;;;10.40;4.40;;;;;;;;;;103793;1295;545507;-72
2023/10/30 06:43:09;;;;;;;8.10;3.90;;;;;;;;;;103975;1289;545470;-73
2023/10/30 06:46:50;;;;;;;8.20;3.30;;;;;;;;;;103831;1289;545119;-72
2023/10/30 06:50:22;;;;;;;5.90;2.90;;;;;;;;;;103674;1292;545053;-72
2023/10/30 06:54:08;;;;;;;7.70;3.50;;;;;;;;;;103814;1289;545027;-73
2023/10/30 06:57:43;;;;;;;9.80;3.70;;;;;;;;;;103756;1291;545078;-73
2023/10/30 07:01:20;;;;;;;8.70;3.50;;;;;;;;;;103781;1290;545153;-72
2023/10/30 07:04:58;;;;;;;9.50;3.50;;;;;;;;;;103755;1290;545004;-77
2023/10/30 07:08:35;;;;;;;8.70;3.80;;;;;;;;;;103731;1290;544826;-73
2023/10/30 07:12:13;;;;;;;8.00;3.50;;;;;;;;;;103950;1290;544941;-73
2023/10/30 07:15:50;;;;;;;8.40;2.90;;;;;;;;;;103799;1289;545862;-74
2023/10/30 07:19:28;;;;;;;6.40;3.00;;;;;;;;;;103613;1295;545658;-73
2023/10/30 07:23:04;;;;;;;8.50;3.40;;;;;;;;;;104043;1289;544904;-75
2023/10/30 07:26:43;;;;;;;9.00;3.50;;;;;;;;;;103575;1295;544844;-73
2023/10/30 07:30:21;;;;;;;10.80;5.20;;;;;;;;;;103820;1289;544748;-74
2023/10/30 07:33:58;;;;;;;8.80;3.50;;;;;;;;;;103931;1289;544796;-73
2023/10/30 07:37:35;;;;;;;10.50;5.20;;;;;;;;;;103786;1292;545852;-75
2023/10/30 07:41:12;;;;;;;9.80;3.70;;;;;;;;;;104482;1283;544908;-80
2023/10/30 07:44:50;;;;;;;8.80;3.80;;;;;;;;;;103844;1290;545034;-73
2023/10/30 07:48:27;;;;;;;7.90;3.40;;;;;;;;;;103990;1292;545011;-74
2023/10/30 07:52:04;;;;;;;6.90;3.00;;;;;;;;;;103799;1292;544801;-78
2023/10/30 07:55:42;;;;;;;7.70;3.40;;;;;;;;;;103823;1289;544833;-78
2023/10/30 07:59:20;;;;;;;6.80;3.20;;;;;;;;;;103722;1292;545089;-78
2023/10/30 08:02:57;;;;;;;7.80;2.70;;;;;;;;;;103563;1293;544969;-73
2023/10/30 08:06:35;;;;;;;7.30;2.80;;;;;;;;;;103694;1295;544777;-76
2023/10/30 08:10:12;;;;;;;8.30;3.10;;;;;;;;;;103802;1291;545792;-73
2023/10/30 08:13:50;;;;;;;7.60;2.90;;;;;;;;;;103709;1290;545932;-73
2023/10/30 08:17:27;;;;;;;11.10;2.80;;;;;;;;;;103786;1289;544963;-73
2023/10/30 08:21:04;;;;;;;7.20;3.60;;;;;;;;;;103706;1291;545427;-73
2023/10/30 08:24:42;;;;;;;11.70;5.50;;;;;;;;;;103958;1289;545379;-76
2023/10/30 08:28:19;;;;;;;11.50;4.60;;;;;;;;;;103707;1292;545607;-75
2023/10/30 08:31:57;;;;;;;12.90;4.60;;;;;;;;;;103805;1295;545356;-74
2023/10/30 08:35:32;;;;;;;8.00;3.10;;;;;;;;;;103785;1289;546449;-77
2023/10/30 08:39:12;;;;;;;5.80;2.30;;;;;;;;;;103764;1294;545687;-73
2023/10/30 08:42:49;;;;;;;6.70;2.10;;;;;;;;;;103678;1291;545550;-74
2023/10/30 08:46:28;;;;;;;6.00;2.10;;;;;;;;;;103682;1290;545170;-73
2023/10/30 08:50:00;;;;;;;8.80;2.40;;;;;;;;;;103916;1292;546218;-80
2023/10/30 08:53:42;;;;;;;4.60;1.80;;;;;;;;;;103744;1289;545575;-79
2023/10/30 08:57:19;;;;;;;6.20;2.20;;;;;;;;;;103691;1290;544677;-79
2023/10/30 09:00:58;;;;;;;7.90;2.60;;;;;;;;;;103606;1295;544775;-74
2023/10/30 09:04:34;;;;;;;8.20;2.30;;;;;;;;;;103779;1293;544962;-74
2023/10/30 09:08:11;;;;;;;6.10;2.10;;;;;;;;;;103890;1291;546066;-73
2023/10/30 09:11:49;;;;;;;8.30;2.40;;;;;;;;;;103722;1292;545352;-73
2023/10/30 09:15:27;;;;;;;6.30;2.70;;;;;;;;;;103741;1290;545208;-74
2023/10/30 09:19:04;;;;;;;5.60;1.90;;;;;;;;;;103980;1289;544801;-74
2023/10/30 09:22:41;;;;;;;17.00;3.10;;;;;;;;;;103764;1292;545457;-75
2023/10/30 09:26:19;;;;;;;6.30;2.00;;;;;;;;;;103791;1289;544739;-75
2023/10/30 09:29:53;;;;;;;5.50;1.90;;;;;;;;;;103767;1288;544867;-80
2023/10/30 09:33:33;;;;;;;8.30;2.10;;;;;;;;;;103736;1289;545297;-75
2023/10/30 09:37:11;;;;;;;8.90;2.20;;;;;;;;;;103747;1292;544865;-73
2023/10/30 09:40:59;;;;;;;13.70;2.00;;;;;;;;;;103705;1293;544873;-77
2023/10/30 09:44:22;;;;;;;4.10;1.30;;;;;;;;;;103908;1288;544843;-79
2023/10/30 09:48:05;;;;;;;5.80;1.70;;;;;;;;;;103967;1289;546049;-79
2023/10/30 09:51:38;;;;;;;6.50;2.20;;;;;;;;;;103876;1303;544791;-76
2023/10/30 09:55:19;;;;;;;4.10;1.40;;;;;;;;;;103745;1289;546049;-75
2023/10/30 09:58:57;;;;;;;5.90;1.50;;;;;;;;;;103775;1292;544925;-74
2023/10/30 10:02:34;;;;;;;7.00;1.70;;;;;;;;;;103723;1292;545123;-76
2023/10/30 10:06:11;;;;;;;2.90;1.20;;;;;;;;;;103743;1292;544997;-75
2023/10/30 10:09:58;;;;;;;3.70;1.20;;;;;;;;;;103725;1291;544784;-77
2023/10/30 10:13:27;;;;;;;5.60;1.60;;;;;;;;;;104057;1298;544807;-78
2023/10/30 10:17:03;;;;;;;8.70;2.20;;;;;;;;;;103800;1291;545163;-76
2023/10/30 10:20:53;;;;;;;9.30;3.80;;;;;;;;;;104376;1291;544937;-76
2023/10/30 10:24:26;;;;;;;8.40;2.70;;;;;;;;;;103567;1297;545091;-80
2023/10/30 10:27:56;;;;;;;7.30;2.60;;;;;;;;;;103748;1292;545637;-74
2023/10/30 10:31:39;;;;;;;9.00;3.10;;;;;;;;;;104376;1282;548274;-75
2023/10/30 10:35:11;;;;;;;18.80;12.00;;;;;;;;;;103737;1290;545256;-76
2023/10/30 10:38:57;;;;;;;48.10;30.60;;;;;;;;;;103765;1291;545485;-76
2023/10/30 10:42:27;;;;;;;10.60;4.50;;;;;;;;;;103755;1291;544996;-75
2023/10/30 10:46:03;;;;;;;3.80;1.50;;;;;;;;;;104027;1289;545006;-76
2023/10/30 10:49:41;;;;;;;6.40;1.50;;;;;;;;;;103736;1290;545063;-78
2023/10/30 10:53:19;;;;;;;8.90;2.10;;;;;;;;;;103688;1290;545512;-76
2023/10/30 10:56:56;;;;;;;7.40;1.90;;;;;;;;;;103743;1289;545433;-79
2023/10/30 11:00:34;;;;;;;8.00;1.80;;;;;;;;;;103828;1291;545681;-75
2023/10/30 11:04:11;;;;;;;4.90;2.00;;;;;;;;;;103750;1292;544733;-77
2023/10/30 11:07:54;;;;;;;4.00;1.30;;;;;;;;;;103668;1291;545392;-81
2023/10/30 11:11:32;;;;;;;4.50;1.00;;;;;;;;;;103683;1292;545384;-76
2023/10/30 11:15:02;;;;;;;6.00;1.40;;;;;;;;;;103789;1291;544861;-77
2023/10/30 11:19:00;;;;;;;4.10;1.50;;;;;;;;;;103971;1287;547981;-78
2023/10/30 11:22:39;;;;;;;4.50;1.60;;;;;;;;;;103988;1289;545506;-78
2023/10/30 11:25:54;;;;;;;5.20;1.10;;;;;;;;;;103720;1291;545029;-80
2023/10/30 11:29:51;;;;;;;4.10;1.50;;;;;;;;;;103926;1290;544718;-76
2023/10/30 11:33:22;;;;;;;4.60;1.00;;;;;;;;;;103761;1292;548152;-82
2023/10/30 11:36:47;;;;;;;5.10;1.50;;;;;;;;;;103684;1292;544934;-76
2023/10/30 11:40:25;;;;;;;5.00;1.20;;;;;;;;;;103848;1289;545081;-76
2023/10/30 11:44:13;;;;;;;5.60;1.40;;;;;;;;;;103790;1290;545990;-76
2023/10/30 11:47:41;;;;;;;3.90;1.50;;;;;;;;;;103825;1289;546667;-75
2023/10/30 11:51:13;;;;;;;4.60;1.50;;;;;;;;;;104035;1288;544805;-79
2023/10/30 11:54:53;;;;;;;6.90;1.40;;;;;;;;;;103936;1288;544885;-79
2023/10/30 11:58:34;;;;;;;5.80;1.60;;;;;;;;;;103849;1289;544798;-76
2023/10/30 12:02:11;;;;;;;4.50;1.50;;;;;;;;;;103651;1294;545239;-76
2023/10/30 12:05:45;;;;;;;4.40;1.50;;;;;;;;;;103961;1288;544788;-77
2023/10/30 12:09:28;;;;;;;6.50;1.50;;;;;;;;;;103772;1292;545587;-76
2023/10/30 12:13:05;;;;;;;4.00;1.40;;;;;;;;;;103964;1289;544904;-77
2023/10/30 12:16:51;;;;;;;3.90;1.40;;;;;;;;;;103756;1291;545003;-79
2023/10/30 12:20:20;;;;;;;4.30;1.30;;;;;;;;;;103828;1291;545683;-79
2023/10/30 12:23:59;;;;;;;6.60;1.70;;;;;;;;;;103739;1292;544726;-74
2023/10/30 12:27:35;;;;;;;10.40;2.10;;;;;;;;;;103863;1291;545739;-76
2023/10/30 12:31:22;;;;;;;10.10;2.00;;;;;;;;;;103784;1291;545240;-77
2023/10/30 12:34:50;;;;;;;3.80;1.30;;;;;;;;;;103490;1298;544940;-74
2023/10/30 12:38:23;;;;;;;4.60;1.30;;;;;;;;;;103766;1291;544998;-75
2023/10/30 12:42:06;;;;;;;5.00;1.50;;;;;;;;;;103896;1289;544883;-77
2023/10/30 12:45:40;;;;;;;7.40;2.10;;;;;;;;;;103904;1289;545516;-80
2023/10/30 12:49:21;;;;;;;11.00;2.10;;;;;;;;;;103766;1292;544998;-75
2023/10/30 12:52:59;;;;;;;7.10;1.40;;;;;;;;;;103712;1293;544971;-75
2023/10/30 12:56:36;;;;;;;5.90;1.60;;;;;;;;;;104074;1289;545437;-84
2023/10/30 13:00:14;;;;;;;16.30;8.20;;;;;;;;;;103810;1289;544898;-81
2023/10/30 13:03:52;;;;;;;21.50;8.50;;;;;;;;;;103739;1289;544777;-76
2023/10/30 13:07:34;;;;;;;37.20;15.30;;;;;;;;;;103637;1290;547956;-74
2023/10/30 13:11:08;;;;;;;40.30;17.70;;;;;;;;;;104500;1289;545022;-75
2023/10/30 13:14:44;;;;;;;27.90;13.60;;;;;;;;;;104040;1289;545616;-75
2023/10/30 13:18:21;;;;;;;24.90;11.40;;;;;;;;;;103757;1291;544904;-74
2023/10/30 13:21:59;;;;;;;11.50;3.60;;;;;;;;;;103944;1300;545125;-75
2023/10/30 13:25:36;;;;;;;6.10;2.20;;;;;;;;;;103762;1289;545034;-80
2023/10/30 13:29:10;;;;;;;5.80;2.20;;;;;;;;;;103993;1288;545002;-75
2023/10/30 13:32:56;;;;;;;7.50;2.40;;;;;;;;;;103785;1302;545486;-74
2023/10/30 13:36:30;;;;;;;7.00;2.00;;;;;;;;;;103766;1291;544819;-78
2023/10/30 13:40:06;;;;;;;5.00;1.60;;;;;;;;;;103823;1289;544869;-74
2023/10/30 13:43:45;;;;;;;6.70;2.60;;;;;;;;;;103859;1289;545359;-75
2023/10/30 13:47:21;;;;;;;7.60;3.10;;;;;;;;;;103663;1289;544653;-74
2023/10/30 13:50:58;;;;;;;8.30;2.70;;;;;;;;;;103797;1293;545004;-79
2023/10/30 13:54:36;;;;;;;7.30;2.20;;;;;;;;;;103761;1291;544926;-80
2023/10/30 13:58:13;;;;;;;5.50;1.90;;;;;;;;;;103753;1289;544996;-84
2023/10/30 14:01:50;;;;;;;7.00;2.40;;;;;;;;;;103798;1291;544794;-80
2023/10/30 14:05:28;;;;;;;6.50;2.50;;;;;;;;;;103771;1292;544762;-74
2023/10/30 14:09:06;;;;;;;8.30;2.70;;;;;;;;;;103740;1291;544862;-74
2023/10/30 14:12:43;;;;;;;7.70;2.60;;;;;;;;;;103777;1292;545443;-74
2023/10/30 14:16:20;;;;;;;6.60;2.50;;;;;;;;;;103763;1296;545015;-74
2023/10/30 14:19:58;;;;;;;6.70;2.50;;;;;;;;;;103743;1292;545733;-74
2023/10/30 14:23:36;;;;;;;7.40;2.30;;;;;;;;;;103920;1289;545025;-76
2023/10/30 14:27:09;;;;;;;7.60;2.40;;;;;;;;;;103951;1289;544768;-79
2023/10/30 14:30:51;;;;;;;16.30;5.80;;;;;;;;;;103777;1289;545081;-74
2023/10/30 14:34:29;;;;;;;13.40;4.90;;;;;;;;;;103780;1291;544990;-75
2023/10/30 14:38:06;;;;;;;9.60;4.30;;;;;;;;;;103774;1292;545431;-73
2023/10/30 14:41:45;;;;;;;10.40;4.60;;;;;;;;;;103789;1291;546065;-74
2023/10/30 14:45:22;;;;;;;10.10;3.80;;;;;;;;;;103732;1290;545680;-85
2023/10/30 14:48:59;;;;;;;8.80;3.00;;;;;;;;;;103778;1289;544819;-73
2023/10/30 14:52:36;;;;;;;10.10;3.20;;;;;;;;;;103734;1290;544952;-74
2023/10/30 14:56:20;;;;;;;9.10;3.90;;;;;;;;;;103691;1289;547896;-73
2023/10/30 14:59:51;;;;;;;9.60;3.60;;;;;;;;;;103772;1292;544994;-73
2023/10/30 15:03:30;;;;;;;7.90;3.40;;;;;;;;;;103918;1289;544855;-75
2023/10/30 15:07:06;;;;;;;9.10;3.40;;;;;;;;;;103813;1290;545628;-74
2023/10/30 15:10:40;;;;;;;9.30;3.40;;;;;;;;;;103937;1292;544944;-77
2023/10/30 15:14:18;;;;;;;9.90;3.30;;;;;;;;;;103893;1289;544979;-73
2023/10/30 15:18:01;;;;;;;25.90;4.70;;;;;;;;;;103665;1303;544963;-80
2023/10/30 15:21:39;;;;;;;15.30;4.90;;;;;;;;;;103765;1295;545587;-78
2023/10/30 15:25:16;;;;;;;12.30;4.60;;;;;;;;;;103751;1295;545060;-77
2023/10/30 15:28:53;;;;;;;13.90;3.70;;;;;;;;;;103750;1294;544892;-82
2023/10/30 15:32:33;;;;;;;10.60;4.40;;;;;;;;;;103821;1292;544970;-75
2023/10/30 15:36:08;;;;;;;7.90;3.80;;;;;;;;;;103934;1288;544856;-74
2023/10/30 15:39:46;;;;;;;11.00;3.60;;;;;;;;;;103669;1291;544830;-73
2023/10/30 15:43:23;;;;;;;8.80;3.80;;;;;;;;;;103756;1291;545288;-81
2023/10/30 15:47:01;;;;;;;12.10;4.90;;;;;;;;;;103986;1292;544951;-82
2023/10/30 15:50:40;;;;;;;9.80;4.60;;;;;;;;;;104119;1289;545003;-73
2023/10/30 15:54:16;;;;;;;11.60;4.00;;;;;;;;;;103963;1291;545990;-73
2023/10/30 15:57:53;;;;;;;8.90;4.00;;;;;;;;;;103687;1290;545479;-78
2023/10/30 16:01:30;;;;;;;19.40;8.70;;;;;;;;;;103903;1288;544956;-73
2023/10/30 16:05:08;;;;;;;18.80;8.50;;;;;;;;;;103741;1292;544951;-73
2023/10/30 16:08:42;;;;;;;23.20;10.60;;;;;;;;;;103900;1289;544995;-74
2023/10/30 16:12:24;;;;;;;25.20;12.20;;;;;;;;;;103800;1291;545916;-73
2023/10/30 16:15:57;;;;;;;23.20;12.70;;;;;;;;;;103806;1295;545937;-80
2023/10/30 16:19:38;;;;;;;27.00;13.30;;;;;;;;;;103752;1295;545015;-77
2023/10/30 16:23:16;;;;;;;27.60;14.70;;;;;;;;;;104052;1286;545030;-73
2023/10/30 16:26:53;;;;;;;25.90;16.20;;;;;;;;;;103800;1291;545006;-73
2023/10/30 16:30:31;;;;;;;27.30;14.10;;;;;;;;;;103723;1294;545510;-73
2023/10/30 16:34:07;;;;;;;24.50;13.70;;;;;;;;;;103686;1292;545467;-73
2023/10/30 16:37:45;;;;;;;25.90;14.70;;;;;;;;;;103807;1288;545317;-73
2023/10/30 16:41:22;;;;;;;26.90;14.80;;;;;;;;;;103979;1295;545370;-73
2023/10/30 16:45:00;;;;;;;26.00;15.90;;;;;;;;;;103710;1296;544934;-73
2023/10/30 16:48:38;;;;;;;28.80;15.40;;;;;;;;;;103800;1291;545268;-80
2023/10/30 16:52:15;;;;;;;27.70;14.00;;;;;;;;;;103701;1292;545106;-74
2023/10/30 16:55:52;;;;;;;25.70;14.20;;;;;;;;;;103802;1290;545213;-73
2023/10/30 16:59:30;;;;;;;26.40;16.00;;;;;;;;;;103607;1292;545512;-73
2023/10/30 17:03:07;;;;;;;31.40;19.00;;;;;;;;;;103462;1294;544750;-76
2023/10/30 17:06:45;;;;;;;54.10;25.50;;;;;;;;;;103747;1292;545087;-73
2023/10/30 17:10:22;;;;;;;26.90;14.70;;;;;;;;;;103787;1292;545173;-73
2023/10/30 17:13:59;;;;;;;23.00;11.30;;;;;;;;;;103862;1292;544853;-75
2023/10/30 17:17:37;;;;;;;24.50;11.50;;;;;;;;;;103767;1292;544739;-73
2023/10/30 17:21:15;;;;;;;30.10;17.10;;;;;;;;;;103487;1295;544831;-73
2023/10/30 17:24:52;;;;;;;29.60;14.60;;;;;;;;;;103723;1291;544853;-73
2023/10/30 17:28:33;;;;;;;23.40;12.70;;;;;;;;;;103709;1291;545251;-77
2023/10/30 17:32:07;;;;;;;24.30;13.10;;;;;;;;;;104241;1285;545164;-73
2023/10/30 17:35:45;;;;;;;34.40;13.60;;;;;;;;;;103761;1292;544990;-74
2023/10/30 17:39:22;;;;;;;26.00;12.50;;;;;;;;;;103747;1289;545057;-76
2023/10/30 17:42:59;;;;;;;21.30;10.40;;;;;;;;;;103737;1295;544792;-77
2023/10/30 17:46:37;;;;;;;18.80;9.30;;;;;;;;;;103820;1302;544880;-73
2023/10/30 17:50:14;;;;;;;19.80;9.40;;;;;;;;;;103734;1289;544973;-75
2023/10/30 17:53:52;;;;;;;16.20;9.10;;;;;;;;;;104274;1285;544974;-75
2023/10/30 17:57:30;;;;;;;16.50;8.70;;;;;;;;;;103456;1297;545020;-73
2023/10/30 18:01:10;;;;;;;15.80;8.30;;;;;;;;;;103716;1291;544829;-73
2023/10/30 18:04:46;;;;;;;15.70;7.90;;;;;;;;;;103807;1289;544965;-75
2023/10/30 18:08:23;;;;;;;15.80;8.40;;;;;;;;;;103795;1292;544946;-72
2023/10/30 18:11:59;;;;;;;21.30;11.40;;;;;;;;;;104082;1286;544934;-77
2023/10/30 18:15:36;;;;;;;19.70;10.30;;;;;;;;;;103795;1288;546640;-74
2023/10/30 18:19:13;;;;;;;20.30;11.60;;;;;;;;;;103793;1289;544767;-78
2023/10/30 18:22:51;;;;;;;18.50;10.30;;;;;;;;;;103726;1291;545617;-78
2023/10/30 18:26:29;;;;;;;23.10;11.00;;;;;;;;;;103804;1289;545769;-75
2023/10/30 18:30:07;;;;;;;20.90;11.60;;;;;;;;;;103813;1292;544828;-76
2023/10/30 18:33:44;;;;;;;23.90;13.60;;;;;;;;;;103770;1289;545025;-72
2023/10/30 18:37:21;;;;;;;24.00;12.50;;;;;;;;;;103852;1292;544935;-73
2023/10/30 18:41:01;;;;;;;28.90;11.10;;;;;;;;;;103779;1291;545486;-76
2023/10/30 18:44:37;;;;;;;16.90;9.90;;;;;;;;;;103873;1289;545616;-74
2023/10/30 18:48:13;;;;;;;19.90;11.50;;;;;;;;;;103805;1292;545486;-73
2023/10/30 18:51:51;;;;;;;21.50;12.80;;;;;;;;;;103848;1289;544814;-73
2023/10/30 18:55:28;;;;;;;21.70;11.80;;;;;;;;;;103754;1291;545037;-73
2023/10/30 18:59:06;;;;;;;18.50;10.80;;;;;;;;;;103883;1291;545689;-78
2023/10/30 19:02:46;;;;;;;17.00;10.20;;;;;;;;;;103806;1290;545290;-75
2023/10/30 19:06:21;;;;;;;18.40;10.70;;;;;;;;;;103808;1289;544985;-78
2023/10/30 19:09:59;;;;;;;18.70;10.80;;;;;;;;;;103977;1304;545086;-73
2023/10/30 19:13:32;;;;;;;16.00;8.90;;;;;;;;;;104010;1289;545002;-72
2023/10/30 19:17:15;;;;;;;13.70;7.40;;;;;;;;;;103800;1289;545053;-77
2023/10/30 19:20:53;;;;;;;14.30;7.30;;;;;;;;;;104174;1291;545064;-73
2023/10/30 19:24:29;;;;;;;13.70;6.20;;;;;;;;;;103779;1291;545029;-74
2023/10/30 19:28:07;;;;;;;10.60;5.30;;;;;;;;;;103844;1289;545083;-73
2023/10/30 19:31:43;;;;;;;11.50;4.70;;;;;;;;;;103813;1290;544803;-73
2023/10/30 19:35:24;;;;;;;10.50;4.50;;;;;;;;;;103739;1289;544943;-73
2023/10/30 19:38:58;;;;;;;11.20;4.80;;;;;;;;;;103794;1292;545523;-76
2023/10/30 19:42:35;;;;;;;10.90;5.60;;;;;;;;;;103763;1296;545288;-72
2023/10/30 19:46:15;;;;;;;13.00;5.90;;;;;;;;;;103814;1292;544718;-76
2023/10/30 19:49:51;;;;;;;13.70;6.50;;;;;;;;;;103793;1292;545626;-73
2023/10/30 19:53:31;;;;;;;13.30;7.20;;;;;;;;;;103784;1289;545625;-80
2023/10/30 19:57:05;;;;;;;11.80;6.50;;;;;;;;;;103755;1292;544910;-73
2023/10/30 20:00:43;;;;;;;9.50;4.20;;;;;;;;;;104075;1286;545049;-73
2023/10/30 20:04:24;;;;;;;8.30;3.70;;;;;;;;;;104394;1283;545893;-73
2023/10/30 20:08:21;;;;;;;8.60;3.90;;;;;;;;;;103730;1293;547942;-73
2023/10/30 20:11:35;;;;;;;10.90;3.80;;;;;;;;;;103779;1301;545007;-74
2023/10/30 20:15:13;;;;;;;9.60;4.40;;;;;;;;;;103803;1291;545021;-77
2023/10/30 20:18:50;;;;;;;11.60;4.70;;;;;;;;;;103747;1289;545035;-77
2023/10/30 20:22:29;;;;;;;11.60;4.40;;;;;;;;;;104176;1289;544951;-73
2023/10/30 20:26:09;;;;;;;9.10;4.40;;;;;;;;;;103615;1294;545132;-73
2023/10/30 20:29:42;;;;;;;11.20;4.70;;;;;;;;;;104012;1288;545559;-73
2023/10/30 20:33:20;;;;;;;9.90;4.90;;;;;;;;;;103480;1298;545015;-76
2023/10/30 20:36:57;;;;;;;10.10;4.70;;;;;;;;;;103792;1293;545569;-73
2023/10/30 20:40:35;;;;;;;15.30;6.70;;;;;;;;;;103703;1290;545377;-73
2023/10/30 20:44:16;;;;;;;20.50;10.40;;;;;;;;;;103639;1295;546077;-75
2023/10/30 20:47:51;;;;;;;15.80;9.00;;;;;;;;;;103669;1292;545476;-73
2023/10/30 20:51:28;;;;;;;14.90;8.50;;;;;;;;;;103639;1291;544988;-74
2023/10/30 20:55:06;;;;;;;13.10;8.20;;;;;;;;;;103707;1294;544880;-73